Columbus, Ohio
Traffic Map
Current Weather Conditions
Columbus, Ohio
Broken Clouds
Broken Clouds
67°
Feels Like: 67°
Wind Chill: 67° Ceiling: 25000
Heat Index: 67° Visibility: 10mi
Dew Point: 53° Wind: 16mph
Humidity: 61% Direction: 190° (S)
Pressure: 29.73in Gusts: 30mph
Raw Report DataKCMH 241451Z 19014G26KT 10SM SCT043 BKN250 19/12 A2973 RMK AO2 PK WND 19026/1447 SLP062 T01940117 50002
Traffic Incident Summary
Active as of:
Severity:
Category:
InformationThere was an issue retrieving the traffic information for this location. Please try a different location or try again shortly.
Advertisements
Track Severe Weather on mobile